Time;durP1;ratioP1;P1;durP2;ratioP2;P2;SDS_P1;SDS_P2;PMS_P1;PMS_P2;Temp;Humidity;BMP_temperature;BMP_pressure;BME280_temperature;BME280_humidity;BME280_pressure;Samples;Min_cycle;Max_cycle;Signal;HPM_P1;HPM_P2
2023/10/29 00:01:13;;;;;;;;;;;;;;;9.86;100.00;98023.19;5082181;28;19923;-76
2023/10/29 00:03:57;;;;;;;;;;;;;;;9.81;100.00;98032.56;5076111;28;19974;-76
2023/10/29 00:06:42;;;;;;;;;;;;;;;9.78;100.00;98038.00;5092805;28;19957;-75
2023/10/29 00:09:25;;;;;;;;;;;;;;;9.71;100.00;98052.44;5097291;28;19919;-76
2023/10/29 00:12:09;;;;;;;;;;;;;;;9.71;100.00;98062.72;5078188;28;20028;-75
2023/10/29 00:14:53;;;;;;;;;;;;;;;9.67;100.00;98061.78;5107839;28;20377;-76
2023/10/29 00:17:38;;;;;;;;;;;;;;;9.65;100.00;98066.88;5109187;28;19918;-76
2023/10/29 00:20:22;;;;;;;;;;;;;;;9.54;100.00;98072.88;5107068;28;20325;-76
2023/10/29 00:23:06;;;;;;;;;;;;;;;9.55;100.00;98082.78;5080537;28;20268;-76
2023/10/29 00:25:50;;;;;;;;;;;;;;;9.51;100.00;98084.66;5081699;28;19935;-76
2023/10/29 00:28:34;;;;;;;;;;;;;;;9.47;100.00;98086.50;5079172;28;19924;-76
2023/10/29 00:31:18;;;;;;;;;;;;;;;9.45;100.00;98083.28;5080721;28;20356;-76
2023/10/29 00:34:03;;;;;;;;;;;;;;;9.40;100.00;98084.31;5092114;28;19920;-76
2023/10/29 00:36:47;;;;;;;;;;;;;;;9.38;100.00;98077.50;5096350;28;19920;-76
2023/10/29 00:39:31;;;;;;;;;;;;;;;9.35;100.00;98080.94;5071072;28;19919;-76
2023/10/29 00:42:15;;;;;;;;;;;;;;;9.32;100.00;98078.88;5095508;28;19939;-75
2023/10/29 00:44:59;;;;;;;;;;;;;;;9.28;100.00;98075.19;5097134;28;19918;-76
2023/10/29 00:47:43;;;;;;;;;;;;;;;9.26;100.00;98083.84;5095908;28;20276;-76
2023/10/29 00:50:27;;;;;;;;;;;;;;;9.24;100.00;98085.31;5096901;28;19966;-76
2023/10/29 00:53:11;;;;;;;;;;;;;;;9.21;100.00;98088.78;5090286;28;19955;-76
2023/10/29 00:55:55;;;;;;;;;;;;;;;9.16;100.00;98087.88;5096500;28;19918;-76
2023/10/29 00:58:39;;;;;;;;;;;;;;;9.14;100.00;98095.72;5096227;28;19972;-76
2023/10/29 01:01:25;;;;;;;;;;;;;;;9.06;100.00;98095.81;5081620;28;20372;-76
2023/10/29 01:04:08;;;;;;;;;;;;;;;9.02;100.00;98098.44;5091081;28;19923;-76
2023/10/29 01:06:53;;;;;;;;;;;;;;;9.00;100.00;98100.75;5096233;28;19995;-76
2023/10/29 01:09:37;;;;;;;;;;;;;;;8.99;100.00;98104.66;5095705;28;19963;-76
2023/10/29 01:12:21;;;;;;;;;;;;;;;8.97;100.00;98101.44;5084200;28;20272;-76
2023/10/29 01:15:06;;;;;;;;;;;;;;;8.93;100.00;98098.53;5094585;28;19977;-76
2023/10/29 01:17:50;;;;;;;;;;;;;;;8.90;100.00;98090.91;5095974;28;20344;-76
2023/10/29 01:20:34;;;;;;;;;;;;;;;8.89;100.00;98085.72;5084797;28;19928;-76
2023/10/29 01:23:18;;;;;;;;;;;;;;;8.85;100.00;98093.88;5096017;28;20261;-76
2023/10/29 01:26:02;;;;;;;;;;;;;;;8.80;100.00;98096.06;5096318;28;19953;-76
2023/10/29 01:28:46;;;;;;;;;;;;;;;8.76;100.00;98100.69;5097088;28;20005;-76
2023/10/29 01:31:30;;;;;;;;;;;;;;;8.73;100.00;98105.72;5099132;28;19934;-76
2023/10/29 01:34:15;;;;;;;;;;;;;;;8.72;100.00;98100.56;5081799;28;19924;-75
2023/10/29 01:36:58;;;;;;;;;;;;;;;8.69;100.00;98096.50;5079007;28;20008;-76
2023/10/29 01:39:43;;;;;;;;;;;;;;;8.67;100.00;98095.22;5089942;28;19923;-76
2023/10/29 01:42:26;;;;;;;;;;;;;;;8.62;100.00;98089.91;5080480;28;19962;-76
2023/10/29 01:45:14;;;;;;;;;;;;;;;8.60;100.00;98084.69;5094000;28;19919;-76
2023/10/29 01:47:58;;;;;;;;;;;;;;;8.57;100.00;98082.59;5106882;28;19920;-76
2023/10/29 01:50:42;;;;;;;;;;;;;;;8.54;100.00;98083.28;5079091;28;19918;-76
2023/10/29 01:53:27;;;;;;;;;;;;;;;8.52;100.00;98085.59;5098031;28;19962;-76
2023/10/29 01:56:12;;;;;;;;;;;;;;;8.51;100.00;98089.50;5067123;28;19962;-76
2023/10/29 01:58:57;;;;;;;;;;;;;;;8.46;100.00;98090.50;5097486;28;19919;-76
2023/10/29 02:01:41;;;;;;;;;;;;;;;8.48;100.00;98093.75;5099656;28;20054;-76
2023/10/29 02:04:26;;;;;;;;;;;;;;;8.45;100.00;98096.41;5093240;28;20329;-76
2023/10/29 02:07:10;;;;;;;;;;;;;;;8.44;100.00;98094.75;5112471;28;19942;-76
2023/10/29 02:09:55;;;;;;;;;;;;;;;8.45;100.00;98088.09;5093419;28;19923;-76
2023/10/29 02:12:39;;;;;;;;;;;;;;;8.44;100.00;98075.41;5081099;28;19919;-76
2023/10/29 02:15:23;;;;;;;;;;;;;;;8.43;100.00;98079.31;5083946;28;19919;-76
2023/10/29 02:18:07;;;;;;;;;;;;;;;8.43;100.00;98071.03;5095185;28;19920;-76
2023/10/29 02:20:51;;;;;;;;;;;;;;;8.40;100.00;98077.25;5076481;28;19981;-76
2023/10/29 02:23:34;;;;;;;;;;;;;;;8.43;100.00;98066.31;5087112;28;19924;-76
2023/10/29 02:26:19;;;;;;;;;;;;;;;8.40;100.00;98075.28;5081259;28;19919;-76
2023/10/29 02:29:04;;;;;;;;;;;;;;;8.38;100.00;98068.44;5092887;28;19919;-76
2023/10/29 02:31:48;;;;;;;;;;;;;;;8.36;100.00;98066.03;5089180;28;19933;-76
2023/10/29 02:34:31;;;;;;;;;;;;;;;8.34;100.00;98051.72;5097006;28;19935;-76
2023/10/29 02:37:16;;;;;;;;;;;;;;;8.34;100.00;98040.66;5098070;28;19927;-76
2023/10/29 02:39:59;;;;;;;;;;;;;;;8.31;100.00;98044.09;5071276;28;19919;-76
2023/10/29 02:42:44;;;;;;;;;;;;;;;8.28;100.00;98042.81;5094819;28;20272;-76
2023/10/29 02:45:29;;;;;;;;;;;;;;;8.28;100.00;98053.88;5092995;28;19918;-76
2023/10/29 02:48:14;;;;;;;;;;;;;;;8.29;100.00;98055.50;5092064;28;19920;-75
2023/10/29 02:50:58;;;;;;;;;;;;;;;8.27;100.00;98057.81;5116388;28;20355;-76
2023/10/29 02:53:42;;;;;;;;;;;;;;;8.26;100.00;98050.66;5102761;28;19923;-76
2023/10/29 02:56:26;;;;;;;;;;;;;;;8.28;100.00;98030.97;5097740;28;19918;-76
2023/10/29 02:59:10;;;;;;;;;;;;;;;8.27;100.00;98032.94;5064301;28;19958;-76
2023/10/29 03:01:54;;;;;;;;;;;;;;;8.27;100.00;98041.22;5093402;28;19941;-76
2023/10/29 03:04:38;;;;;;;;;;;;;;;8.26;100.00;98038.78;5091874;28;20046;-76
2023/10/29 03:07:22;;;;;;;;;;;;;;;8.24;100.00;98052.94;5099252;28;19919;-76
2023/10/29 03:10:06;;;;;;;;;;;;;;;8.27;100.00;98056.97;5097437;28;19919;-76
2023/10/29 03:12:50;;;;;;;;;;;;;;;8.26;100.00;98052.59;5080488;28;19958;-76
2023/10/29 03:15:34;;;;;;;;;;;;;;;8.23;100.00;98051.31;5087171;28;19937;-76
2023/10/29 03:18:20;;;;;;;;;;;;;;;8.23;100.00;98051.31;5096126;28;19919;-76
2023/10/29 03:21:04;;;;;;;;;;;;;;;8.21;100.00;98042.53;5088175;28;20376;-76
2023/10/29 03:23:48;;;;;;;;;;;;;;;8.23;100.00;98031.97;5083072;28;19918;-76
2023/10/29 03:26:32;;;;;;;;;;;;;;;8.22;100.00;98038.66;5082776;28;19919;-76
2023/10/29 03:29:16;;;;;;;;;;;;;;;8.20;100.00;98035.41;5110631;28;20442;-76
2023/10/29 03:32:00;;;;;;;;;;;;;;;8.21;100.00;98044.50;5091212;28;19959;-76
2023/10/29 03:34:44;;;;;;;;;;;;;;;8.20;100.00;98034.59;5078396;28;19966;-76
2023/10/29 03:37:28;;;;;;;;;;;;;;;8.22;100.00;98024.03;5103244;28;19927;-75
2023/10/29 03:40:12;;;;;;;;;;;;;;;8.21;100.00;98033.44;5092605;28;19924;-76
2023/10/29 03:42:56;;;;;;;;;;;;;;;8.22;100.00;98022.06;5082613;28;20276;-76
2023/10/29 03:45:40;;;;;;;;;;;;;;;8.20;100.00;98018.81;5093278;28;19920;-76
2023/10/29 03:48:25;;;;;;;;;;;;;;;8.19;100.00;98031.03;5091137;28;19922;-76
2023/10/29 03:51:08;;;;;;;;;;;;;;;8.20;100.00;98040.94;5084326;28;19961;-76
2023/10/29 03:53:52;;;;;;;;;;;;;;;8.22;100.00;98038.66;5082449;28;19935;-76
2023/10/29 03:56:36;;;;;;;;;;;;;;;8.25;100.00;98054.56;5105188;28;19934;-76
2023/10/29 03:59:20;;;;;;;;;;;;;;;8.28;100.00;98042.03;5086164;28;19919;-76
2023/10/29 04:02:04;;;;;;;;;;;;;;;8.29;100.00;98030.59;5080166;28;20407;-76
2023/10/29 04:04:48;;;;;;;;;;;;;;;8.28;100.00;98020.69;5097716;28;19939;-76
2023/10/29 04:07:32;;;;;;;;;;;;;;;8.34;100.00;98034.31;5071261;28;19933;-76
2023/10/29 04:10:16;;;;;;;;;;;;;;;8.36;100.00;98034.78;5095264;28;19920;-76
2023/10/29 04:13:00;;;;;;;;;;;;;;;8.40;100.00;98021.94;5096508;28;19919;-76
2023/10/29 04:15:45;;;;;;;;;;;;;;;8.38;100.00;98018.66;5082013;28;19927;-76
2023/10/29 04:18:31;;;;;;;;;;;;;;;8.42;100.00;98025.97;5097447;28;19966;-76
2023/10/29 04:21:15;;;;;;;;;;;;;;;8.42;100.00;98039.00;5082324;28;20015;-76
2023/10/29 04:23:59;;;;;;;;;;;;;;;8.46;100.00;98048.22;5082537;28;19965;-76
2023/10/29 04:26:43;;;;;;;;;;;;;;;8.45;100.00;98035.56;5084032;28;19934;-76
2023/10/29 04:29:27;;;;;;;;;;;;;;;8.45;100.00;98030.81;5081914;28;19926;-76
2023/10/29 04:32:12;;;;;;;;;;;;;;;8.48;100.00;98029.34;5090388;28;19996;-76
2023/10/29 04:34:56;;;;;;;;;;;;;;;8.47;100.00;98024.97;5084201;28;19919;-76
2023/10/29 04:37:40;;;;;;;;;;;;;;;8.47;100.00;98019.44;5091030;28;19927;-76
2023/10/29 04:40:24;;;;;;;;;;;;;;;8.48;100.00;98001.69;5092490;28;19919;-76
2023/10/29 04:43:08;;;;;;;;;;;;;;;8.47;100.00;97995.34;5070123;28;20426;-76
2023/10/29 04:45:52;;;;;;;;;;;;;;;8.48;100.00;97994.19;5078470;28;19919;-76
2023/10/29 04:48:37;;;;;;;;;;;;;;;8.49;100.00;98003.28;5090347;28;19920;-76
2023/10/29 04:51:21;;;;;;;;;;;;;;;8.49;100.00;98008.81;5079519;28;19951;-76
2023/10/29 04:54:06;;;;;;;;;;;;;;;8.48;100.00;98035.66;5095404;28;20007;-76
2023/10/29 04:56:50;;;;;;;;;;;;;;;8.49;100.00;98025.41;5091034;28;19966;-75
2023/10/29 04:59:36;;;;;;;;;;;;;;;8.49;100.00;98025.41;5075757;28;19962;-76
2023/10/29 05:02:22;;;;;;;;;;;;;;;8.51;100.00;98020.34;5083843;28;19924;-76
2023/10/29 05:05:06;;;;;;;;;;;;;;;8.52;100.00;98026.69;5094007;28;19949;-76
2023/10/29 05:07:50;;;;;;;;;;;;;;;8.54;100.00;98003.06;5084387;28;20267;-76
2023/10/29 05:10:34;;;;;;;;;;;;;;;8.56;100.00;97986.94;5090359;28;19965;-76
2023/10/29 05:13:18;;;;;;;;;;;;;;;8.56;100.00;98003.53;5100859;28;20401;-75
2023/10/29 05:16:04;;;;;;;;;;;;;;;8.62;100.00;98016.00;5101047;28;19978;-75
2023/10/29 05:18:48;;;;;;;;;;;;;;;8.64;100.00;98022.00;5100992;28;19918;-76
2023/10/29 05:21:32;;;;;;;;;;;;;;;8.66;100.00;98019.72;5089349;28;19965;-76
2023/10/29 05:24:16;;;;;;;;;;;;;;;8.72;100.00;97990.66;5075949;28;19959;-76
2023/10/29 05:27:00;;;;;;;;;;;;;;;8.74;100.00;97968.16;5099250;28;20391;-76
2023/10/29 05:29:44;;;;;;;;;;;;;;;8.79;100.00;97986.53;5066057;28;19924;-76
2023/10/29 05:32:28;;;;;;;;;;;;;;;8.80;100.00;97986.16;5110279;28;20259;-76
2023/10/29 05:35:12;;;;;;;;;;;;;;;8.84;100.00;97989.88;5103712;28;20236;-76
2023/10/29 05:37:56;;;;;;;;;;;;;;;8.86;100.00;98006.13;5098656;28;19927;-76
2023/10/29 05:40:40;;;;;;;;;;;;;;;8.89;100.00;97988.84;5084895;28;19920;-76
2023/10/29 05:43:25;;;;;;;;;;;;;;;8.93;100.00;98009.94;5101771;28;19923;-76
2023/10/29 05:46:12;;;;;;;;;;;;;;;8.96;100.00;98025.06;5095735;28;19920;-76
2023/10/29 05:48:56;;;;;;;;;;;;;;;8.98;100.00;98010.88;5099298;28;19997;-75
2023/10/29 05:51:40;;;;;;;;;;;;;;;9.00;100.00;97978.09;5110362;28;19969;-75
2023/10/29 05:54:24;;;;;;;;;;;;;;;9.04;100.00;97949.41;5087580;28;19978;-75
2023/10/29 05:57:09;;;;;;;;;;;;;;;9.06;100.00;97905.56;5098681;28;19974;-75
2023/10/29 05:59:53;;;;;;;;;;;;;;;9.10;100.00;97911.22;5099247;28;20382;-75
2023/10/29 06:02:38;;;;;;;;;;;;;;;9.12;100.00;97898.63;5087357;28;20092;-75
2023/10/29 06:05:23;;;;;;;;;;;;;;;9.14;100.00;97892.75;5098986;28;19983;-75
2023/10/29 06:08:06;;;;;;;;;;;;;;;9.15;100.00;97906.25;5084403;28;19919;-75
2023/10/29 06:10:50;;;;;;;;;;;;;;;9.15;100.00;97870.25;5092163;28;19965;-75
2023/10/29 06:13:34;;;;;;;;;;;;;;;9.17;100.00;97873.47;5099272;28;19923;-75
2023/10/29 06:16:18;;;;;;;;;;;;;;;9.15;100.00;97856.41;5097777;28;19919;-75
2023/10/29 06:19:03;;;;;;;;;;;;;;;9.15;100.00;97848.09;5078368;28;19919;-75
2023/10/29 06:21:46;;;;;;;;;;;;;;;9.16;100.00;97843.34;5086631;28;19977;-75
2023/10/29 06:24:30;;;;;;;;;;;;;;;9.12;100.00;97850.78;5099411;28;19980;-75
2023/10/29 06:27:14;;;;;;;;;;;;;;;9.10;100.00;97851.09;5098631;28;20348;-75
2023/10/29 06:29:59;;;;;;;;;;;;;;;9.09;100.00;97849.50;5086842;28;20368;-76
2023/10/29 06:32:45;;;;;;;;;;;;;;;9.05;100.00;97840.25;5097646;28;19958;-75
2023/10/29 06:35:29;;;;;;;;;;;;;;;9.07;100.00;97856.53;5092824;28;20013;-75
2023/10/29 06:38:14;;;;;;;;;;;;;;;9.05;100.00;97881.78;5090668;28;20017;-75
2023/10/29 06:40:58;;;;;;;;;;;;;;;8.99;100.00;97883.19;5109166;28;19955;-75
2023/10/29 06:43:42;;;;;;;;;;;;;;;9.01;100.00;97897.50;5082354;28;19965;-75
2023/10/29 06:46:26;;;;;;;;;;;;;;;9.00;100.00;97889.53;5088132;28;19918;-75
2023/10/29 06:49:11;;;;;;;;;;;;;;;8.99;100.00;97905.34;5096216;28;19999;-75
2023/10/29 06:51:59;;;;;;;;;;;;;;;8.97;100.00;97913.19;5092184;28;19951;-75
2023/10/29 06:54:43;;;;;;;;;;;;;;;9.02;100.00;97931.53;5088495;28;19973;-75
2023/10/29 06:57:27;;;;;;;;;;;;;;;9.01;100.00;97936.25;5097537;28;19940;-76
2023/10/29 07:00:11;;;;;;;;;;;;;;;9.01;100.00;97927.94;5093103;28;20311;-75
2023/10/29 07:02:59;;;;;;;;;;;;;;;9.04;100.00;97934.75;5083238;28;19927;-76
2023/10/29 07:05:43;;;;;;;;;;;;;;;9.08;100.00;97952.28;5084854;28;19965;-75
2023/10/29 07:08:27;;;;;;;;;;;;;;;9.11;100.00;97946.88;5097876;28;19923;-76
2023/10/29 07:11:11;;;;;;;;;;;;;;;9.14;100.00;97965.56;5096359;28;19920;-75
2023/10/29 07:13:55;;;;;;;;;;;;;;;9.16;100.00;97979.88;5094310;28;19924;-75
2023/10/29 07:16:43;;;;;;;;;;;;;;;9.18;100.00;98008.00;5108803;28;19919;-75
2023/10/29 07:19:27;;;;;;;;;;;;;;;9.23;100.00;98020.81;5098459;28;19958;-75
2023/10/29 07:22:11;;;;;;;;;;;;;;;9.26;100.00;98024.88;5086312;28;19926;-75
2023/10/29 07:24:58;;;;;;;;;;;;;;;9.28;100.00;98044.72;5095996;28;19946;-76
2023/10/29 07:27:43;;;;;;;;;;;;;;;9.34;100.00;98082.91;5088990;28;19919;-75
2023/10/29 07:30:28;;;;;;;;;;;;;;;9.35;100.00;98067.09;5097250;28;19942;-75
2023/10/29 07:33:12;;;;;;;;;;;;;;;9.35;100.00;98023.59;5084675;28;19923;-75
2023/10/29 07:35:56;;;;;;;;;;;;;;;9.36;100.00;98027.16;5094876;28;19934;-75
2023/10/29 07:38:40;;;;;;;;;;;;;;;9.39;100.00;98021.75;5086835;28;19927;-75
2023/10/29 07:41:24;;;;;;;;;;;;;;;9.37;100.00;98028.78;5077436;28;20375;-75
2023/10/29 07:44:08;;;;;;;;;;;;;;;9.38;100.00;97997.97;5082454;28;19919;-75
2023/10/29 07:46:52;;;;;;;;;;;;;;;9.35;100.00;97984.00;5079627;28;19919;-75
2023/10/29 07:49:37;;;;;;;;;;;;;;;9.36;100.00;97985.59;5086174;28;20264;-76
2023/10/29 07:52:21;;;;;;;;;;;;;;;9.34;100.00;97994.28;5098014;28;19926;-76
2023/10/29 07:55:06;;;;;;;;;;;;;;;9.34;100.00;98001.78;5096528;28;19923;-76
2023/10/29 07:57:50;;;;;;;;;;;;;;;9.33;100.00;98006.53;5098077;28;19975;-76
2023/10/29 08:00:35;;;;;;;;;;;;;;;9.31;100.00;98010.78;5097809;28;19919;-75
2023/10/29 08:03:19;;;;;;;;;;;;;;;9.25;100.00;98024.06;5097534;28;19925;-75
2023/10/29 08:06:03;;;;;;;;;;;;;;;9.24;100.00;98038.25;5090682;28;19988;-75
2023/10/29 08:08:47;;;;;;;;;;;;;;;9.25;100.00;98032.38;5103333;28;19973;-76
2023/10/29 08:11:31;;;;;;;;;;;;;;;9.27;100.00;98038.34;5094625;28;19919;-75
2023/10/29 08:14:16;;;;;;;;;;;;;;;9.30;100.00;98045.16;5097672;28;20003;-76
2023/10/29 08:17:00;;;;;;;;;;;;;;;9.36;100.00;98044.59;5084907;28;19999;-76
2023/10/29 08:19:44;;;;;;;;;;;;;;;9.45;100.00;98054.78;5096378;28;20041;-76
2023/10/29 08:22:28;;;;;;;;;;;;;;;9.54;100.00;98064.56;5101474;28;19923;-75
2023/10/29 08:25:12;;;;;;;;;;;;;;;9.64;100.00;98066.09;5070300;28;19923;-75
2023/10/29 08:27:56;;;;;;;;;;;;;;;9.74;100.00;98076.69;5097181;28;19919;-75
2023/10/29 08:30:41;;;;;;;;;;;;;;;9.86;100.00;98075.84;5107952;28;19958;-76
2023/10/29 08:33:26;;;;;;;;;;;;;;;9.94;100.00;98083.22;5108093;28;20384;-76
2023/10/29 08:36:10;;;;;;;;;;;;;;;10.09;100.00;98084.50;5096204;28;19919;-76
2023/10/29 08:38:54;;;;;;;;;;;;;;;10.21;100.00;98091.97;5084017;28;19943;-76
2023/10/29 08:41:38;;;;;;;;;;;;;;;10.33;100.00;98082.84;5082782;28;20019;-76
2023/10/29 08:44:22;;;;;;;;;;;;;;;10.46;100.00;98082.44;5084749;28;19966;-76
2023/10/29 08:47:06;;;;;;;;;;;;;;;10.62;100.00;98095.59;5096902;28;19919;-76
2023/10/29 08:49:51;;;;;;;;;;;;;;;10.76;100.00;98095.97;5101398;28;20371;-76
2023/10/29 08:52:35;;;;;;;;;;;;;;;10.86;100.00;98092.69;5100349;28;20084;-76
2023/10/29 08:55:19;;;;;;;;;;;;;;;10.99;100.00;98084.28;5101069;28;19919;-75
2023/10/29 08:58:03;;;;;;;;;;;;;;;11.10;100.00;98097.31;5093961;28;19950;-76
2023/10/29 09:00:47;;;;;;;;;;;;;;;11.16;100.00;98136.75;5086170;28;19937;-76
2023/10/29 09:03:31;;;;;;;;;;;;;;;11.21;100.00;98135.69;5100038;28;19981;-76
2023/10/29 09:06:16;;;;;;;;;;;;;;;11.24;100.00;98099.66;5101234;28;19923;-76
2023/10/29 09:08:59;;;;;;;;;;;;;;;11.21;100.00;98102.34;5094711;28;19919;-76
2023/10/29 09:11:44;;;;;;;;;;;;;;;11.16;100.00;98114.50;5082238;28;20405;-76
2023/10/29 09:14:29;;;;;;;;;;;;;;;11.14;100.00;98114.06;5083292;28;19939;-76
2023/10/29 09:17:12;;;;;;;;;;;;;;;11.09;100.00;98115.13;5086984;28;19923;-76
2023/10/29 09:19:56;;;;;;;;;;;;;;;11.04;100.00;98115.41;5084996;28;19966;-76
2023/10/29 09:22:40;;;;;;;;;;;;;;;10.98;100.00;98116.00;5097536;28;19930;-76
2023/10/29 09:25:24;;;;;;;;;;;;;;;10.91;100.00;98117.41;5084872;28;20327;-76
2023/10/29 09:28:08;;;;;;;;;;;;;;;10.89;100.00;98122.53;5100160;28;19957;-76
2023/10/29 09:30:52;;;;;;;;;;;;;;;10.85;100.00;98116.06;5099873;28;19974;-76
2023/10/29 09:33:38;;;;;;;;;;;;;;;10.80;100.00;98123.84;5085101;28;19957;-76
2023/10/29 09:36:22;;;;;;;;;;;;;;;10.77;100.00;98111.47;5100410;28;19923;-76
2023/10/29 09:39:07;;;;;;;;;;;;;;;10.74;100.00;98114.97;5092660;28;19931;-76
2023/10/29 09:41:53;;;;;;;;;;;;;;;10.68;100.00;98108.84;5098105;28;20011;-76
2023/10/29 09:44:39;;;;;;;;;;;;;;;10.66;100.00;98107.59;5086228;28;19958;-76
2023/10/29 09:47:23;;;;;;;;;;;;;;;10.67;100.00;98128.63;5094850;28;19919;-76
2023/10/29 09:50:08;;;;;;;;;;;;;;;10.72;100.00;98134.72;5092731;28;19918;-75
2023/10/29 09:52:55;;;;;;;;;;;;;;;10.80;100.00;98135.75;5067154;28;19920;-76
2023/10/29 09:55:40;;;;;;;;;;;;;;;10.89;100.00;98133.66;5097609;28;20371;-76
2023/10/29 09:58:26;;;;;;;;;;;;;;;11.02;100.00;98139.13;5098171;28;19927;-76
2023/10/29 10:01:09;;;;;;;;;;;;;;;11.11;100.00;98137.78;5098763;28;19965;-76
2023/10/29 10:03:53;;;;;;;;;;;;;;;11.24;100.00;98149.66;5078315;28;19980;-76
2023/10/29 10:06:38;;;;;;;;;;;;;;;11.37;100.00;98144.84;5094202;28;20029;-75
2023/10/29 10:09:22;;;;;;;;;;;;;;;11.51;100.00;98158.31;5103696;28;19940;-75
2023/10/29 10:12:06;;;;;;;;;;;;;;;11.64;100.00;98154.25;5084242;28;19935;-76
2023/10/29 10:14:52;;;;;;;;;;;;;;;11.74;100.00;98155.72;5084306;28;19935;-75
2023/10/29 10:17:36;;;;;;;;;;;;;;;11.89;100.00;98157.69;5112474;28;19965;-75
2023/10/29 10:20:21;;;;;;;;;;;;;;;12.04;100.00;98167.22;5096133;28;19918;-75
2023/10/29 10:23:05;;;;;;;;;;;;;;;12.15;100.00;98176.63;5072534;28;20007;-76
2023/10/29 10:25:49;;;;;;;;;;;;;;;12.29;100.00;98170.59;5112717;28;19933;-75
2023/10/29 10:28:34;;;;;;;;;;;;;;;12.42;100.00;98179.59;5092878;28;19919;-76
2023/10/29 10:31:18;;;;;;;;;;;;;;;12.57;100.00;98184.34;5096314;28;20364;-76
2023/10/29 10:34:20;;;;;;;;;;;;;;;12.71;100.00;98197.78;5099558;28;20062;-76
2023/10/29 10:37:04;;;;;;;;;;;;;;;12.87;100.00;98203.25;5092240;28;20395;-76
2023/10/29 10:39:48;;;;;;;;;;;;;;;13.01;100.00;98211.94;5098067;28;19926;-76
2023/10/29 10:42:32;;;;;;;;;;;;;;;13.15;100.00;98212.22;5102395;28;19939;-76
2023/10/29 10:45:20;;;;;;;;;;;;;;;13.27;100.00;98213.28;5093281;28;19942;-76
2023/10/29 10:48:04;;;;;;;;;;;;;;;13.44;100.00;98210.03;5091827;28;19919;-76
2023/10/29 10:50:49;;;;;;;;;;;;;;;13.59;100.00;98213.88;5081892;28;19919;-76
2023/10/29 10:53:32;;;;;;;;;;;;;;;13.70;100.00;98226.03;5079226;28;20007;-76
2023/10/29 10:56:17;;;;;;;;;;;;;;;13.81;100.00;98224.25;5108035;28;19918;-75
2023/10/29 10:59:02;;;;;;;;;;;;;;;13.89;100.00;98228.00;5083381;28;19919;-76
2023/10/29 11:01:50;;;;;;;;;;;;;;;13.96;100.00;98227.31;5079390;28;19955;-76
2023/10/29 11:04:34;;;;;;;;;;;;;;;14.06;100.00;98226.69;5091738;28;19982;-76
2023/10/29 11:07:18;;;;;;;;;;;;;;;14.15;100.00;98241.22;5085426;28;19969;-76
2023/10/29 11:10:02;;;;;;;;;;;;;;;14.22;100.00;98241.31;5097389;28;19919;-76
2023/10/29 11:12:46;;;;;;;;;;;;;;;14.31;100.00;98241.84;5097708;28;20268;-76
2023/10/29 11:15:30;;;;;;;;;;;;;;;14.35;100.00;98250.31;5066512;28;19919;-75
2023/10/29 11:18:14;;;;;;;;;;;;;;;14.42;100.00;98250.41;5125788;27;19954;-76
2023/10/29 11:20:59;;;;;;;;;;;;;;;14.50;100.00;98249.34;5092134;28;19923;-76
2023/10/29 11:23:43;;;;;;;;;;;;;;;14.56;100.00;98249.84;5083084;28;19919;-76
2023/10/29 11:26:28;;;;;;;;;;;;;;;14.62;100.00;98248.34;5097173;28;20428;-76
2023/10/29 11:29:35;;;;;;;;;;;;;;;14.69;100.00;98245.66;5079705;28;19969;-75
2023/10/29 11:32:22;;;;;;;;;;;;;;;14.76;100.00;98253.34;5089287;28;20410;-76
2023/10/29 11:35:24;;;;;;;;;;;;;;;14.84;100.00;98263.44;5098413;28;19989;-76
2023/10/29 11:38:27;;;;;;;;;;;;;;;14.94;100.00;98243.22;5089808;28;19928;-76
2023/10/29 11:41:30;;;;;;;;;;;;;;;14.98;100.00;98249.66;5081184;28;20408;-75
2023/10/29 11:44:17;;;;;;;;;;;;;;;15.09;100.00;98254.59;5097940;28;19934;-76
2023/10/29 11:47:02;;;;;;;;;;;;;;;15.19;100.00;98253.94;5093758;28;19973;-76
2023/10/29 11:49:46;;;;;;;;;;;;;;;15.37;100.00;98259.75;5076855;28;19918;-75
2023/10/29 11:52:39;;;;;;;;;;;;;;;15.90;100.00;98258.78;5101987;28;19918;-76
2023/10/29 11:55:25;;;;;;;;;;;;;;;16.11;100.00;98261.78;5097417;28;19919;-76
2023/10/29 11:58:09;;;;;;;;;;;;;;;15.87;100.00;98268.75;5093106;28;20425;-76
2023/10/29 12:00:53;;;;;;;;;;;;;;;15.71;100.00;98263.41;5064504;28;19919;-76
2023/10/29 12:03:38;;;;;;;;;;;;;;;15.67;100.00;98264.50;5094131;28;20006;-75
2023/10/29 12:06:36;;;;;;;;;;;;;;;15.62;100.00;98272.03;5091268;28;19957;-75
2023/10/29 12:09:21;;;;;;;;;;;;;;;15.56;100.00;98278.38;5088390;28;19935;-76
2023/10/29 12:12:08;;;;;;;;;;;;;;;15.46;100.00;98273.44;5090794;28;19958;-75
2023/10/29 12:14:53;;;;;;;;;;;;;;;15.38;100.00;98287.34;5120610;27;19918;-76
2023/10/29 12:17:37;;;;;;;;;;;;;;;15.32;100.00;98280.50;5096562;28;19919;-76
2023/10/29 12:20:22;;;;;;;;;;;;;;;15.25;100.00;98279.59;5069983;28;19919;-75
2023/10/29 12:23:07;;;;;;;;;;;;;;;15.18;100.00;98294.25;5079227;28;19966;-76
2023/10/29 12:25:51;;;;;;;;;;;;;;;15.06;100.00;98289.72;5076099;28;19919;-76
2023/10/29 12:28:38;;;;;;;;;;;;;;;15.02;100.00;98296.44;5085808;28;19934;-76
2023/10/29 12:31:26;;;;;;;;;;;;;;;14.93;100.00;98297.53;5082309;28;19934;-76
2023/10/29 12:34:10;;;;;;;;;;;;;;;14.83;100.00;98302.94;5082757;28;19919;-76
2023/10/29 12:36:54;;;;;;;;;;;;;;;14.78;100.00;98306.06;5096467;28;19919;-76
2023/10/29 12:39:43;;;;;;;;;;;;;;;14.76;100.00;98320.41;5067633;28;20344;-76
2023/10/29 12:42:45;;;;;;;;;;;;;;;14.73;100.00;98323.94;5096202;28;20178;-76
2023/10/29 12:45:32;;;;;;;;;;;;;;;14.71;100.00;98306.78;5094034;28;20300;-75
2023/10/29 12:48:19;;;;;;;;;;;;;;;14.71;100.00;98309.56;5097649;28;19934;-76
2023/10/29 12:51:03;;;;;;;;;;;;;;;14.68;100.00;98307.50;5082241;28;19962;-75
2023/10/29 12:53:48;;;;;;;;;;;;;;;14.71;100.00;98285.22;5093110;28;20273;-75
2023/10/29 12:56:32;;;;;;;;;;;;;;;14.73;100.00;98293.22;5095965;28;20476;-75
2023/10/29 12:59:17;;;;;;;;;;;;;;;14.67;100.00;98272.38;5085160;28;19973;-76
2023/10/29 13:02:04;;;;;;;;;;;;;;;14.66;100.00;98265.97;5079439;28;19923;-76
2023/10/29 13:04:51;;;;;;;;;;;;;;;14.62;100.00;98253.13;5090226;28;19923;-76
2023/10/29 13:07:37;;;;;;;;;;;;;;;14.52;100.00;98258.19;5085626;28;19919;-75
2023/10/29 13:10:21;;;;;;;;;;;;;;;14.57;100.00;98262.66;5096234;28;19995;-75
2023/10/29 13:13:06;;;;;;;;;;;;;;;14.44;100.00;98273.19;5077089;28;19918;-75
2023/10/29 13:15:50;;;;;;;;;;;;;;;14.39;100.00;98281.06;5090225;28;19919;-76
2023/10/29 13:18:34;;;;;;;;;;;;;;;14.33;100.00;98277.78;5096112;28;19919;-75
2023/10/29 13:21:18;;;;;;;;;;;;;;;14.31;100.00;98277.34;5092885;28;19975;-76
2023/10/29 13:24:03;;;;;;;;;;;;;;;14.28;100.00;98278.91;5093808;28;19934;-75
2023/10/29 13:26:47;;;;;;;;;;;;;;;14.22;100.00;98268.44;5080743;28;20333;-75
2023/10/29 13:29:33;;;;;;;;;;;;;;;14.22;100.00;98279.59;5099980;28;20003;-76
2023/10/29 13:32:17;;;;;;;;;;;;;;;14.17;100.00;98294.66;5099863;28;20482;-76
2023/10/29 13:35:01;;;;;;;;;;;;;;;14.08;100.00;98288.53;5092454;28;19920;-76
2023/10/29 13:37:45;;;;;;;;;;;;;;;14.02;100.00;98276.88;5094716;28;19947;-75
2023/10/29 13:40:29;;;;;;;;;;;;;;;14.00;100.00;98295.97;5077586;28;19933;-75
2023/10/29 13:43:13;;;;;;;;;;;;;;;13.93;100.00;98281.06;5073850;28;19969;-75
2023/10/29 13:45:59;;;;;;;;;;;;;;;13.84;100.00;98290.47;5094659;28;20454;-75
2023/10/29 13:48:45;;;;;;;;;;;;;;;13.74;100.00;98279.13;5094453;28;19919;-75
2023/10/29 13:51:29;;;;;;;;;;;;;;;13.76;100.00;98285.13;5093101;28;20019;-76
2023/10/29 13:54:13;;;;;;;;;;;;;;;13.69;100.00;98288.59;5119011;28;19918;-75
2023/10/29 13:56:57;;;;;;;;;;;;;;;13.62;100.00;98286.50;5104595;28;20367;-76
2023/10/29 13:59:41;;;;;;;;;;;;;;;13.59;100.00;98275.25;5093359;28;19935;-75
2023/10/29 14:02:25;;;;;;;;;;;;;;;13.61;100.00;98279.28;5085800;28;19926;-76
2023/10/29 14:05:12;;;;;;;;;;;;;;;13.56;100.00;98298.28;5094955;28;20306;-75
2023/10/29 14:07:59;;;;;;;;;;;;;;;13.56;100.00;98290.72;5099128;28;20383;-76
2023/10/29 14:10:43;;;;;;;;;;;;;;;13.57;100.00;98299.94;5070959;28;20387;-75
2023/10/29 14:13:27;;;;;;;;;;;;;;;13.56;100.00;98304.66;5097294;28;19918;-75